createdAt,value
2022-12-20T00:01:34.652Z,62.10
2022-12-20T00:04:05.707Z,53.23
2022-12-20T00:06:36.061Z,53.57
2022-12-20T00:09:06.786Z,55.23
2022-12-20T00:11:34.848Z,55.70
2022-12-20T00:14:02.262Z,47.07
2022-12-20T00:16:30.036Z,53.57
2022-12-20T00:19:03.545Z,50.83
2022-12-20T00:21:33.439Z,50.60
2022-12-20T00:24:01.044Z,44.97
2022-12-20T00:26:31.482Z,52.63
2022-12-20T00:29:00.277Z,54.63
2022-12-20T00:31:30.417Z,52.53
2022-12-20T00:33:59.280Z,52.67
2022-12-20T00:36:30.441Z,45.07
2022-12-20T00:38:59.529Z,43.63
2022-12-20T00:41:32.507Z,38.63
2022-12-20T00:44:00.121Z,45.27
2022-12-20T00:46:27.565Z,54.47
2022-12-20T00:48:55.796Z,43.97
2022-12-20T00:51:27.037Z,50.90
2022-12-20T00:53:54.909Z,49.33
2022-12-20T00:56:22.540Z,46.30
2022-12-20T00:58:49.679Z,49.53
2022-12-20T01:01:27.862Z,34.00
2022-12-20T01:03:55.344Z,41.23
2022-12-20T01:06:24.198Z,43.40
2022-12-20T01:08:52.373Z,37.43
2022-12-20T01:11:35.048Z,44.27
2022-12-20T01:14:09.789Z,43.80
2022-12-20T01:16:43.089Z,42.57
2022-12-20T01:19:14.812Z,44.83
2022-12-20T01:21:44.773Z,49.65
2022-12-20T01:24:18.578Z,43.37
2022-12-20T01:26:46.511Z,39.33
2022-12-20T01:29:14.210Z,52.67
2022-12-20T01:31:42.920Z,46.97
2022-12-20T01:34:11.233Z,54.17
2022-12-20T01:36:38.928Z,51.57
2022-12-20T01:39:15.446Z,59.07
2022-12-20T01:41:44.062Z,52.43
2022-12-20T01:44:16.906Z,53.97
2022-12-20T01:46:46.444Z,56.97
2022-12-20T01:49:32.649Z,54.47
2022-12-20T01:52:16.640Z,53.03
2022-12-20T01:54:50.318Z,50.53
2022-12-20T01:57:31.735Z,55.00
2022-12-20T01:59:59.273Z,53.63
2022-12-20T02:02:27.343Z,53.37
2022-12-20T02:04:54.489Z,56.77
2022-12-20T02:07:27.212Z,55.30
2022-12-20T02:09:55.548Z,49.30
2022-12-20T02:12:26.211Z,49.73
2022-12-20T02:15:31.732Z,56.53
2022-12-20T02:18:24.647Z,48.57
2022-12-20T02:21:26.004Z,47.50
2022-12-20T02:24:20.081Z,38.20
2022-12-20T02:27:37.143Z,47.30
2022-12-20T02:30:15.392Z,44.13
2022-12-20T02:32:49.593Z,44.57
2022-12-20T02:35:24.672Z,46.10
2022-12-20T02:37:55.871Z,41.20
2022-12-20T02:40:35.373Z,42.43
2022-12-20T02:43:27.632Z,50.97
2022-12-20T02:45:56.725Z,42.53
2022-12-20T02:48:25.812Z,43.07
2022-12-20T02:50:55.949Z,41.33
2022-12-20T02:53:23.625Z,38.20
2022-12-20T02:56:06.927Z,36.20
2022-12-20T02:58:43.181Z,38.80
2022-12-20T03:01:28.994Z,32.10
2022-12-20T03:03:58.368Z,35.47
2022-12-20T03:06:25.647Z,39.90
2022-12-20T03:08:53.018Z,32.50
2022-12-20T03:11:23.347Z,32.90
2022-12-20T03:13:50.877Z,25.97
2022-12-20T03:16:17.965Z,28.77
2022-12-20T03:18:46.091Z,29.40
2022-12-20T03:21:13.483Z,33.70
2022-12-20T03:23:40.823Z,30.30
2022-12-20T03:26:08.053Z,29.70
2022-12-20T03:28:40.429Z,28.75
2022-12-20T03:31:09.989Z,33.00
2022-12-20T03:33:44.552Z,37.60
2022-12-20T03:36:12.250Z,34.00
2022-12-20T03:38:39.829Z,31.93
2022-12-20T03:41:08.244Z,32.77
2022-12-20T03:43:35.258Z,33.67
2022-12-20T03:46:02.751Z,41.67
2022-12-20T03:48:35.373Z,33.72
2022-12-20T03:51:02.604Z,29.73
2022-12-20T03:53:29.857Z,36.53
2022-12-20T03:55:57.485Z,34.33
2022-12-20T03:58:26.048Z,28.20
2022-12-20T04:00:54.019Z,25.33
2022-12-20T04:03:37.621Z,28.47
2022-12-20T04:06:05.011Z,30.50
2022-12-20T04:08:32.247Z,32.70
2022-12-20T04:11:17.594Z,31.70
2022-12-20T04:13:53.708Z,29.93
2022-12-20T04:16:27.617Z,29.10
2022-12-20T04:18:55.853Z,39.27
2022-12-20T04:21:30.856Z,37.97
2022-12-20T04:24:00.156Z,41.90
2022-12-20T04:26:37.097Z,35.70
2022-12-20T04:29:05.207Z,33.30
2022-12-20T04:31:33.381Z,29.83
2022-12-20T04:34:00.583Z,18.43
2022-12-20T04:36:29.254Z,31.23
2022-12-20T04:38:58.135Z,38.80
2022-12-20T04:41:27.009Z,28.00
2022-12-20T04:43:59.201Z,27.40
2022-12-20T04:46:34.690Z,20.00
2022-12-20T04:49:02.969Z,23.50
2022-12-20T04:51:32.452Z,27.20
2022-12-20T04:53:59.841Z,22.00
2022-12-20T04:56:35.369Z,26.00
2022-12-20T04:59:09.162Z,23.23
2022-12-20T05:01:36.980Z,24.10
2022-12-20T05:04:04.447Z,33.87
2022-12-20T05:06:35.846Z,33.97
2022-12-20T05:09:03.495Z,30.17
2022-12-20T05:11:31.657Z,31.17
2022-12-20T05:13:59.098Z,34.97
2022-12-20T05:16:26.189Z,32.43
2022-12-20T05:18:53.725Z,31.53
2022-12-20T05:21:39.752Z,130.67
2022-12-20T05:24:27.574Z,104.23
2022-12-20T05:27:04.726Z,46.17
2022-12-20T05:29:32.101Z,55.47
2022-12-20T05:31:59.502Z,53.47
2022-12-20T05:34:27.383Z,57.80
2022-12-20T05:36:56.190Z,54.17
2022-12-20T05:39:27.125Z,51.10
2022-12-20T05:41:57.829Z,32.60
2022-12-20T05:44:26.412Z,44.77
2022-12-20T05:46:57.196Z,30.77
2022-12-20T05:49:29.282Z,22.35
2022-12-20T05:51:59.500Z,25.03
2022-12-20T05:54:27.103Z,21.27
2022-12-20T05:57:02.802Z,23.40
2022-12-20T05:59:38.011Z,24.53
2022-12-20T06:02:10.568Z,31.37
2022-12-20T06:04:38.293Z,34.27
2022-12-20T06:07:12.377Z,33.07
2022-12-20T06:09:40.678Z,31.20
2022-12-20T06:12:12.571Z,32.30
2022-12-20T06:14:40.505Z,30.20
2022-12-20T06:17:07.459Z,44.20
2022-12-20T06:19:35.097Z,40.73
2022-12-20T06:22:03.481Z,28.90
2022-12-20T06:24:45.911Z,23.67
2022-12-20T06:27:15.520Z,25.23
2022-12-20T06:29:49.340Z,28.57
2022-12-20T06:32:17.077Z,26.70
2022-12-20T06:34:44.118Z,33.87
2022-12-20T06:37:12.495Z,36.07
2022-12-20T06:39:40.232Z,28.57
2022-12-20T06:42:09.321Z,34.27
2022-12-20T06:44:39.391Z,27.60
2022-12-20T06:47:06.775Z,35.90
2022-12-20T06:49:33.873Z,29.93
2022-12-20T06:52:05.650Z,29.63
2022-12-20T06:54:50.687Z,34.60
2022-12-20T06:57:19.953Z,31.40
2022-12-20T06:59:48.377Z,30.90
2022-12-20T07:02:16.384Z,26.47
2022-12-20T07:04:43.488Z,29.80
2022-12-20T07:07:12.589Z,34.43
2022-12-20T07:09:41.347Z,28.30
2022-12-20T07:12:09.559Z,32.47
2022-12-20T07:14:36.707Z,31.03
2022-12-20T07:17:05.868Z,32.73
2022-12-20T07:19:33.538Z,30.57
2022-12-20T07:22:00.673Z,35.70
2022-12-20T07:24:27.835Z,35.27
2022-12-20T07:26:54.743Z,34.00
2022-12-20T07:29:21.679Z,43.60
2022-12-20T07:31:48.716Z,33.13
2022-12-20T07:34:16.049Z,32.70
2022-12-20T07:36:43.016Z,34.93
2022-12-20T07:39:11.177Z,36.13
2022-12-20T07:41:38.230Z,34.37
2022-12-20T07:44:06.219Z,31.47
2022-12-20T07:46:33.534Z,41.23
2022-12-20T07:49:00.619Z,40.97
2022-12-20T07:51:37.216Z,35.83
2022-12-20T07:54:20.256Z,35.63
2022-12-20T07:56:53.212Z,39.23
2022-12-20T07:59:25.932Z,42.37
2022-12-20T08:01:53.298Z,38.43
2022-12-20T08:04:25.919Z,38.40
2022-12-20T08:06:56.574Z,43.90
2022-12-20T08:09:25.226Z,40.40
2022-12-20T08:11:53.351Z,47.90
2022-12-20T08:14:20.449Z,43.37
2022-12-20T08:16:47.472Z,52.47
2022-12-20T08:19:15.198Z,47.67
2022-12-20T08:21:42.155Z,34.73
2022-12-20T08:24:09.198Z,38.57
2022-12-20T08:26:41.729Z,36.30
2022-12-20T08:29:08.875Z,39.33
2022-12-20T08:31:45.861Z,36.93
2022-12-20T08:34:17.028Z,39.87
2022-12-20T08:36:43.975Z,35.90
2022-12-20T08:39:11.429Z,37.20
2022-12-20T08:41:38.352Z,41.33
2022-12-20T08:44:06.718Z,35.90
2022-12-20T08:46:34.283Z,45.07
2022-12-20T08:49:01.652Z,33.40
2022-12-20T08:51:29.388Z,39.27
2022-12-20T08:53:56.543Z,34.30
2022-12-20T08:56:24.023Z,34.00
2022-12-20T08:58:51.053Z,32.13
2022-12-20T09:01:21.898Z,30.17
2022-12-20T09:03:49.508Z,47.00
2022-12-20T09:06:20.496Z,44.03
2022-12-20T09:08:48.756Z,34.77
2022-12-20T09:11:22.696Z,40.17
2022-12-20T09:13:54.080Z,32.00
2022-12-20T09:16:27.876Z,28.97
2022-12-20T09:19:04.678Z,21.83
2022-12-20T09:21:33.699Z,22.00
2022-12-20T09:24:00.675Z,21.93
2022-12-20T09:26:27.665Z,38.43
2022-12-20T09:28:55.126Z,26.43
2022-12-20T09:31:25.421Z,24.03
2022-12-20T09:34:01.100Z,28.83
2022-12-20T09:36:29.888Z,24.47
2022-12-20T09:38:57.597Z,26.37
2022-12-20T09:41:44.699Z,115.63
2022-12-20T09:44:29.253Z,23.43
2022-12-20T09:47:18.730Z,15.77
2022-12-20T09:49:50.704Z,13.77
2022-12-20T09:52:34.827Z,13.85
2022-12-20T09:55:07.549Z,11.33
2022-12-20T09:58:28.972Z,12.67
2022-12-20T10:00:56.026Z,16.17
2022-12-20T10:03:30.471Z,19.30
2022-12-20T10:06:17.533Z,18.63
2022-12-20T10:09:01.279Z,11.67
2022-12-20T10:11:58.406Z,18.33
2022-12-20T10:14:42.360Z,11.20
2022-12-20T10:17:17.669Z,18.70
2022-12-20T10:20:15.929Z,10.73
2022-12-20T10:22:54.832Z,9.50
2022-12-20T10:25:24.803Z,11.45
2022-12-20T10:27:57.054Z,12.80
2022-12-20T10:32:57.100Z,12.10
2022-12-20T10:35:25.671Z,15.07
2022-12-20T10:38:12.413Z,14.95
2022-12-20T10:43:45.118Z,11.50
2022-12-20T10:46:14.749Z,11.20
2022-12-20T10:48:44.136Z,9.23
2022-12-20T10:51:16.449Z,9.52
2022-12-20T10:54:04.154Z,7.53
2022-12-20T10:56:38.688Z,13.27
2022-12-20T10:59:17.844Z,10.97
2022-12-20T11:01:47.544Z,11.83
2022-12-20T11:04:38.726Z,10.83
2022-12-20T11:07:31.876Z,9.73
2022-12-20T11:10:19.768Z,15.27
2022-12-20T11:12:58.961Z,46.37
2022-12-20T11:15:36.884Z,20.30
2022-12-20T11:18:36.441Z,16.57
2022-12-20T11:21:11.132Z,17.10
2022-12-20T11:23:48.425Z,20.07
2022-12-20T11:26:42.854Z,15.33
2022-12-20T11:30:00.873Z,19.90
2022-12-20T11:32:49.136Z,29.83
2022-12-20T11:35:32.559Z,23.97
2022-12-20T11:38:10.222Z,26.00
2022-12-20T11:41:04.717Z,21.37
2022-12-20T11:44:24.459Z,20.40
2022-12-20T11:47:22.045Z,17.63
2022-12-20T11:49:58.641Z,19.50
2022-12-20T11:52:37.370Z,17.57
2022-12-20T11:55:33.456Z,18.70
2022-12-20T11:58:21.062Z,24.87
2022-12-20T12:00:58.226Z,24.40
2022-12-20T12:03:37.240Z,20.85
2022-12-20T12:06:19.804Z,23.40
2022-12-20T12:09:36.401Z,22.30
2022-12-20T12:12:11.656Z,28.43
2022-12-20T12:14:56.684Z,27.03
2022-12-20T12:17:39.982Z,20.33
2022-12-20T12:20:43.585Z,27.65
2022-12-20T12:23:56.859Z,26.83
2022-12-20T12:26:35.115Z,15.87
2022-12-20T12:29:04.197Z,17.30
2022-12-20T12:31:50.408Z,20.83
2022-12-20T12:34:41.354Z,20.93
2022-12-20T12:37:54.884Z,21.83
2022-12-20T12:41:05.183Z,18.53
2022-12-20T12:43:53.338Z,26.03
2022-12-20T12:46:29.788Z,28.70
2022-12-20T12:49:10.705Z,29.30
2022-12-20T12:51:44.782Z,31.05
2022-12-20T12:54:21.441Z,35.53
2022-12-20T12:56:52.773Z,36.17
2022-12-20T12:59:24.209Z,35.83
2022-12-20T13:02:16.185Z,38.63
2022-12-20T13:05:25.950Z,28.80
2022-12-20T13:07:53.418Z,34.45
2022-12-20T13:10:24.752Z,22.65
2022-12-20T13:15:22.729Z,23.52
2022-12-20T13:18:03.743Z,25.30
2022-12-20T13:20:35.769Z,23.65
2022-12-20T13:23:09.498Z,25.30
2022-12-20T13:25:44.271Z,26.98
2022-12-20T13:28:22.604Z,31.70
2022-12-20T13:31:12.247Z,21.98
2022-12-20T13:33:51.489Z,21.05
2022-12-20T13:36:37.707Z,24.55
2022-12-20T13:39:27.603Z,27.60
2022-12-20T13:42:14.826Z,56.72
2022-12-20T13:44:48.397Z,67.70
2022-12-20T13:47:42.285Z,65.18
2022-12-20T13:50:33.092Z,33.45
2022-12-20T13:53:09.479Z,34.97
2022-12-20T13:55:42.488Z,29.77
2022-12-20T14:01:13.374Z,34.45
2022-12-20T14:03:48.246Z,44.03
2022-12-20T14:06:24.512Z,37.35
2022-12-20T14:08:53.797Z,33.38
2022-12-20T14:11:27.026Z,32.33
2022-12-20T14:14:00.287Z,41.08
2022-12-20T14:16:30.193Z,29.33
2022-12-20T14:18:57.977Z,27.42
2022-12-20T14:21:26.093Z,29.63
2022-12-20T14:23:56.827Z,26.90
2022-12-20T14:26:40.494Z,17.02
2022-12-20T14:29:12.964Z,15.77
2022-12-20T14:31:44.207Z,12.13
2022-12-20T14:34:11.627Z,10.93
2022-12-20T14:36:45.049Z,12.27
2022-12-20T14:39:36.040Z,19.50
2022-12-20T14:42:09.857Z,22.30
2022-12-20T14:44:36.901Z,16.08
2022-12-20T14:47:26.078Z,16.48
2022-12-20T14:50:02.321Z,19.00
2022-12-20T14:52:39.156Z,17.88
2022-12-20T14:55:10.600Z,17.75
2022-12-20T14:57:39.676Z,19.42
2022-12-20T15:00:18.013Z,12.73
2022-12-20T15:03:00.044Z,19.42
2022-12-20T15:05:46.213Z,15.23
2022-12-20T15:08:27.834Z,20.85
2022-12-20T15:11:03.589Z,19.05
2022-12-20T15:13:49.927Z,14.52
2022-12-20T15:16:21.822Z,10.73
2022-12-20T15:18:55.143Z,17.53
2022-12-20T15:21:42.755Z,22.67
2022-12-20T15:24:15.038Z,18.23
2022-12-20T15:26:42.552Z,19.95
2022-12-20T15:29:25.414Z,16.55
2022-12-20T15:32:03.825Z,17.95
2022-12-20T15:34:36.465Z,11.68
2022-12-20T15:37:05.771Z,18.00
2022-12-20T15:39:33.959Z,18.10
2022-12-20T15:42:03.900Z,8.57
2022-12-20T15:44:33.544Z,9.18
2022-12-20T15:47:00.934Z,13.52
2022-12-20T15:49:32.378Z,10.75
2022-12-20T15:51:59.753Z,21.63
2022-12-20T15:54:31.446Z,15.55
2022-12-20T15:57:13.896Z,14.32
2022-12-20T15:59:59.777Z,14.73
2022-12-20T16:02:31.224Z,12.35
2022-12-20T16:04:59.365Z,26.30
2022-12-20T16:07:28.312Z,29.52
2022-12-20T16:09:55.214Z,28.30
2022-12-20T16:12:28.211Z,17.73
2022-12-20T16:14:55.666Z,34.13
2022-12-20T16:17:24.410Z,35.88
2022-12-20T16:19:51.778Z,36.23
2022-12-20T16:22:24.192Z,32.67
2022-12-20T16:24:52.084Z,30.40
2022-12-20T16:27:20.306Z,36.00
2022-12-20T16:29:47.898Z,40.17
2022-12-20T16:32:16.910Z,70.83
2022-12-20T16:34:44.524Z,81.33
2022-12-20T16:37:12.033Z,57.10
2022-12-20T16:39:39.626Z,37.33
2022-12-20T16:42:19.340Z,27.83
2022-12-20T16:44:48.025Z,41.60
2022-12-20T16:47:15.442Z,29.83
2022-12-20T16:49:51.532Z,36.92
2022-12-20T16:52:20.289Z,36.77
2022-12-20T16:54:47.684Z,31.95
2022-12-20T16:57:15.169Z,28.10
2022-12-20T16:59:44.793Z,31.80
2022-12-20T17:02:33.731Z,25.13
2022-12-20T17:05:02.177Z,30.83
2022-12-20T17:07:29.691Z,26.05
2022-12-20T17:10:11.276Z,22.63
2022-12-20T17:12:39.040Z,24.53
2022-12-20T17:15:07.009Z,23.20
2022-12-20T17:17:34.526Z,47.78
2022-12-20T17:20:02.156Z,50.70
2022-12-20T17:25:35.050Z,54.88
2022-12-20T17:28:02.530Z,36.37
2022-12-20T17:30:29.931Z,43.77
2022-12-20T17:32:57.307Z,45.25
2022-12-20T17:35:31.158Z,48.83
2022-12-20T17:37:58.589Z,73.77
2022-12-20T17:40:27.836Z,41.80
2022-12-20T17:42:55.894Z,50.30
2022-12-20T17:45:33.129Z,36.67
2022-12-20T17:48:00.950Z,41.73
2022-12-20T17:50:28.466Z,33.73
2022-12-20T17:52:56.025Z,38.07
2022-12-20T17:55:28.199Z,35.40
2022-12-20T17:57:56.221Z,25.75
2022-12-20T18:00:34.531Z,14.05
2022-12-20T18:03:04.021Z,9.82
2022-12-20T18:05:31.561Z,6.57
2022-12-20T18:07:59.327Z,4.25
2022-12-20T18:10:26.706Z,4.00
2022-12-20T18:12:54.235Z,4.88
2022-12-20T18:15:21.588Z,5.38
2022-12-20T18:17:48.996Z,10.15
2022-12-20T18:20:17.325Z,4.97
2022-12-20T18:22:44.782Z,4.80
2022-12-20T18:25:13.914Z,9.02
2022-12-20T18:27:42.439Z,10.80
2022-12-20T18:30:12.197Z,28.83
2022-12-20T18:32:40.852Z,12.70
2022-12-20T18:35:09.344Z,30.42
2022-12-20T18:37:37.065Z,25.73
2022-12-20T18:40:04.808Z,20.50
2022-12-20T18:42:32.315Z,32.75
2022-12-20T18:44:59.708Z,16.02
2022-12-20T18:47:27.809Z,11.10
2022-12-20T18:49:55.246Z,8.93
2022-12-20T18:52:22.767Z,7.78
2022-12-20T18:54:50.321Z,8.10
2022-12-20T18:57:17.725Z,13.63
2022-12-20T18:59:45.233Z,17.30
2022-12-20T19:02:15.025Z,18.23
2022-12-20T19:04:42.677Z,6.30
2022-12-20T19:07:11.135Z,7.65
2022-12-20T19:09:38.581Z,12.32
2022-12-20T19:12:06.200Z,21.08
2022-12-20T19:14:33.629Z,19.63
2022-12-20T19:17:01.142Z,23.45
2022-12-20T19:19:28.627Z,19.65
2022-12-20T19:21:56.166Z,20.38
2022-12-20T19:24:23.601Z,16.98
2022-12-20T19:26:51.006Z,8.10
2022-12-20T19:29:18.367Z,11.38
2022-12-20T19:31:45.818Z,7.70
2022-12-20T19:34:13.810Z,9.85
2022-12-20T19:36:46.337Z,8.48
2022-12-20T19:39:20.024Z,10.38
2022-12-20T19:42:15.519Z,13.60
2022-12-20T19:44:35.872Z,16.95
2022-12-20T19:47:06.816Z,19.48
2022-12-20T19:49:35.834Z,32.70
2022-12-20T19:52:03.883Z,37.85
2022-12-20T19:54:31.324Z,30.17
2022-12-20T19:56:58.784Z,43.20
2022-12-20T19:59:26.176Z,39.95
2022-12-20T20:01:53.761Z,35.28
2022-12-20T20:04:21.389Z,26.48
2022-12-20T20:06:48.797Z,21.48
2022-12-20T20:09:16.261Z,17.83
2022-12-20T20:11:43.805Z,20.30
2022-12-20T20:14:11.444Z,24.38
2022-12-20T20:16:39.135Z,17.88
2022-12-20T20:19:06.928Z,17.40
2022-12-20T20:21:36.387Z,19.25
2022-12-20T20:24:04.426Z,17.98
2022-12-20T20:26:32.010Z,16.52
2022-12-20T20:29:01.732Z,15.82
2022-12-20T20:31:29.726Z,9.00
2022-12-20T20:34:00.792Z,12.88
2022-12-20T20:36:29.860Z,17.48
2022-12-20T20:38:57.434Z,13.50
2022-12-20T20:41:25.740Z,21.52
2022-12-20T20:43:53.406Z,13.30
2022-12-20T20:46:20.967Z,8.63
2022-12-20T20:48:48.450Z,8.50
2022-12-20T20:51:15.995Z,6.13
2022-12-20T20:53:43.436Z,9.30
2022-12-20T20:56:11.524Z,19.73
2022-12-20T20:58:39.461Z,18.67
2022-12-20T21:01:08.955Z,19.75
2022-12-20T21:03:37.114Z,9.98
2022-12-20T21:06:37.204Z,8.20
2022-12-20T21:08:54.314Z,8.43
2022-12-20T21:11:22.172Z,8.63
2022-12-20T21:13:49.605Z,11.95
2022-12-20T21:16:22.186Z,9.20
2022-12-20T21:18:54.456Z,8.02
2022-12-20T21:21:29.120Z,8.88
2022-12-20T21:23:56.877Z,7.05
2022-12-20T21:26:25.732Z,11.75
2022-12-20T21:29:00.112Z,7.60
2022-12-20T21:31:28.340Z,13.23
2022-12-20T21:33:56.861Z,8.65
2022-12-20T21:36:24.712Z,7.90
2022-12-20T21:38:56.867Z,8.50
2022-12-20T21:41:27.736Z,20.90
2022-12-20T21:44:00.154Z,18.55
2022-12-20T21:46:30.058Z,20.33
2022-12-20T21:48:58.568Z,19.13
2022-12-20T21:51:28.011Z,22.48
2022-12-20T21:54:00.253Z,19.80
2022-12-20T21:56:30.927Z,22.77
2022-12-20T21:58:58.517Z,18.70
2022-12-20T22:01:28.521Z,26.02
2022-12-20T22:04:04.450Z,23.35
2022-12-20T22:06:32.930Z,23.55
2022-12-20T22:09:02.427Z,28.98
2022-12-20T22:11:29.879Z,34.10
2022-12-20T22:13:58.102Z,39.67
2022-12-20T22:16:32.242Z,34.63
2022-12-20T22:19:01.325Z,33.38
2022-12-20T22:21:31.179Z,37.50
2022-12-20T22:23:59.181Z,45.25
2022-12-20T22:26:30.073Z,40.95
2022-12-20T22:29:00.895Z,19.58
2022-12-20T22:31:28.596Z,23.92
2022-12-20T22:33:57.261Z,14.73
2022-12-20T22:36:24.939Z,15.73
2022-12-20T22:38:53.328Z,13.07
2022-12-20T22:41:29.467Z,6.95
2022-12-20T22:43:59.212Z,17.08
2022-12-20T22:46:29.376Z,12.20
2022-12-20T22:48:57.928Z,12.30
2022-12-20T22:51:27.162Z,9.43
2022-12-20T22:53:56.276Z,11.73
2022-12-20T22:56:24.132Z,9.50
2022-12-20T22:58:51.681Z,9.30
2022-12-20T23:01:20.502Z,8.00
2022-12-20T23:03:48.455Z,6.90
2022-12-20T23:06:20.184Z,8.73
2022-12-20T23:08:48.020Z,8.02
2022-12-20T23:11:45.360Z,6.55
2022-12-20T23:14:37.796Z,8.60
2022-12-20T23:17:07.502Z,8.57
2022-12-20T23:19:53.953Z,7.55
2022-12-20T23:22:37.785Z,5.85
2022-12-20T23:25:06.204Z,8.10
2022-12-20T23:27:33.955Z,6.65
2022-12-20T23:30:01.595Z,9.10
2022-12-20T23:32:29.042Z,7.78
2022-12-20T23:34:56.380Z,11.73
2022-12-20T23:37:25.979Z,5.57
2022-12-20T23:39:54.279Z,7.60
2022-12-20T23:42:21.791Z,5.75
2022-12-20T23:44:49.268Z,6.88
2022-12-20T23:47:18.985Z,11.77
2022-12-20T23:49:46.663Z,12.27
2022-12-20T23:52:14.148Z,9.48
2022-12-20T23:54:41.550Z,5.13
2022-12-20T23:57:09.019Z,6.60
2022-12-20T23:59:36.389Z,6.50
